HRGA4: Little River, Horatio, AR

Data processed at Sat Dec 09 2017 23:10


All information presented herein is the property of the government of the United States of America and may be revised or deleted at any time without prior notice.
Dissemination of this information without the expressed written consent of the Public Affairs Office, Tulsa District U.S. Army Corps of Engineers is strictly prohibited.
These data are gathered electronically and, as presented, have not undergone any form of quality control. These data are not guaranteed to be valid or correct.
Go to home page.
Go to station list.

Upstream stations:

Downstream station:
Previous Day
Next Day
Current Day
    
SHEF ID:       HRGA4     Little River near Horatio, AR
STATION TYPE:  

               PRECIP     STAGE  RIV-FLOW  BAT-LOAD
                   in        ft       cfs      volt
              Ccp-Rev   Ccp-Rev   Ccp-Rev   Ccp-Rev
(US/Central)
12/07 00:00      0.00      5.51       713     12.89
12/07 01:00      0.00      5.44       674     12.89
12/07 02:00      0.00      5.36       631     12.81
12/07 03:00      0.00      5.29       595     12.81
12/07 04:00      0.00      5.24       569     12.73
12/07 05:00      0.00      5.19       543     12.73
12/07 06:00      0.00      5.15       523     12.65
12/07 07:00      0.00      5.17       533     12.65
12/07 08:00      0.00      5.26       579     12.65
12/07 09:00      0.00      5.40       652     12.73
12/07 10:00      0.00      5.58       753     13.05
12/07 11:00      0.00      5.69       816     13.21
12/07 12:00      0.00      5.70       822     13.37
12/07 13:00      0.00      5.78       868     13.92
12/07 14:00      0.00      5.75       851     13.68
12/07 15:00      0.00      5.73       839     13.60
12/07 16:00      0.00      5.69       816     13.60
12/07 17:00      0.00      5.63       781     13.44
12/07 18:00      0.00      5.57       747     13.21
12/07 19:00      0.00      5.50       707     13.05
12/07 20:00      0.00      5.43       668     13.05
12/07 21:00      0.00      5.37       636     12.97
12/07 22:00      0.00      5.31       605     12.97
12/07 23:00      0.00      5.25       574     12.89